createdAt,value
2023-01-08T00:00:57.472Z,74.91
2023-01-08T00:02:19.343Z,74.95
2023-01-08T00:03:41.841Z,75.30
2023-01-08T00:05:04.738Z,74.87
2023-01-08T00:06:26.566Z,75.16
2023-01-08T00:07:48.216Z,75.49
2023-01-08T00:09:11.073Z,75.31
2023-01-08T00:10:32.656Z,75.31
2023-01-08T00:11:54.683Z,75.31
2023-01-08T00:13:16.590Z,74.87
2023-01-08T00:14:38.437Z,74.94
2023-01-08T00:16:07.932Z,74.94
2023-01-08T00:17:29.721Z,75.58
2023-01-08T00:18:51.521Z,75.49
2023-01-08T00:20:13.701Z,75.28
2023-01-08T00:21:35.326Z,75.21
2023-01-08T00:22:57.288Z,75.16
2023-01-08T00:24:20.816Z,75.10
2023-01-08T00:25:42.851Z,75.36
2023-01-08T00:27:04.591Z,74.92
2023-01-08T00:28:26.379Z,75.24
2023-01-08T00:29:48.596Z,74.68
2023-01-08T00:31:12.906Z,75.50
2023-01-08T00:32:34.362Z,75.03
2023-01-08T00:33:56.573Z,75.52
2023-01-08T00:35:18.485Z,75.40
2023-01-08T00:36:40.272Z,75.42
2023-01-08T00:38:02.095Z,75.35
2023-01-08T00:39:42.639Z,75.29
2023-01-08T00:41:05.055Z,75.69
2023-01-08T00:42:26.604Z,76.04
2023-01-08T00:43:48.378Z,75.50
2023-01-08T00:45:11.013Z,75.65
2023-01-08T00:46:32.721Z,75.16
2023-01-08T00:47:54.739Z,75.82
2023-01-08T00:49:16.432Z,75.71
2023-01-08T00:50:38.448Z,75.80
2023-01-08T00:52:00.337Z,75.96
2023-01-08T00:53:25.461Z,75.87
2023-01-08T00:54:47.175Z,76.04
2023-01-08T00:56:11.009Z,75.88
2023-01-08T00:57:37.653Z,75.82
2023-01-08T00:58:59.342Z,75.77
2023-01-08T01:00:21.515Z,75.82
2023-01-08T01:01:43.337Z,75.38
2023-01-08T01:03:05.552Z,75.22
2023-01-08T01:04:27.839Z,75.39
2023-01-08T01:05:50.181Z,75.41
2023-01-08T01:07:12.135Z,76.28
2023-01-08T01:08:35.403Z,76.32
2023-01-08T01:09:57.053Z,75.86
2023-01-08T01:11:25.177Z,75.92
2023-01-08T01:12:47.069Z,75.61
2023-01-08T01:14:09.701Z,75.37
2023-01-08T01:15:31.634Z,75.43
2023-01-08T01:16:53.493Z,75.61
2023-01-08T01:18:15.728Z,75.42
2023-01-08T01:19:37.531Z,75.64
2023-01-08T01:20:59.200Z,75.68
2023-01-08T01:22:20.937Z,75.41
2023-01-08T01:23:42.848Z,75.41
2023-01-08T01:25:05.334Z,75.30
2023-01-08T01:26:27.826Z,75.78
2023-01-08T01:27:49.735Z,75.69
2023-01-08T01:29:11.793Z,75.92
2023-01-08T01:30:33.681Z,75.46
2023-01-08T01:31:55.435Z,76.01
2023-01-08T01:33:17.281Z,75.58
2023-01-08T01:34:39.347Z,75.68
2023-01-08T01:36:02.876Z,75.54
2023-01-08T01:37:24.533Z,75.38
2023-01-08T01:38:47.816Z,75.20
2023-01-08T01:40:10.395Z,75.69
2023-01-08T01:41:40.814Z,75.59
2023-01-08T01:43:05.144Z,75.51
2023-01-08T01:44:41.390Z,75.63
2023-01-08T01:46:06.370Z,75.81
2023-01-08T01:47:38.337Z,76.25
2023-01-08T01:49:05.635Z,75.93
2023-01-08T01:50:30.267Z,75.93
2023-01-08T01:51:55.986Z,75.78
2023-01-08T01:53:27.374Z,76.02
2023-01-08T01:54:51.457Z,75.94
2023-01-08T01:56:13.548Z,75.94
2023-01-08T01:57:36.567Z,75.60
2023-01-08T01:58:58.402Z,75.77
2023-01-08T02:00:20.787Z,75.82
2023-01-08T02:01:43.597Z,76.04
2023-01-08T02:03:08.914Z,76.54
2023-01-08T02:04:30.618Z,76.46
2023-01-08T02:05:58.490Z,76.63
2023-01-08T02:07:53.873Z,76.38
2023-01-08T02:09:30.393Z,76.19
2023-01-08T02:11:06.010Z,76.34
2023-01-08T02:12:41.389Z,76.81
2023-01-08T02:14:12.040Z,76.03
2023-01-08T02:16:09.409Z,76.29
2023-01-08T02:17:36.336Z,76.14
2023-01-08T02:19:06.872Z,76.16
2023-01-08T02:20:50.953Z,75.72
2023-01-08T02:22:12.763Z,75.99
2023-01-08T02:23:58.962Z,76.13
2023-01-08T02:25:32.789Z,75.99
2023-01-08T02:26:57.835Z,75.85
2023-01-08T02:28:21.052Z,76.26
2023-01-08T02:29:42.932Z,76.04
2023-01-08T02:31:06.151Z,76.20
2023-01-08T02:32:32.869Z,76.25
2023-01-08T02:33:55.029Z,76.46
2023-01-08T02:35:16.725Z,76.25
2023-01-08T02:36:40.347Z,76.52
2023-01-08T02:38:02.242Z,76.36
2023-01-08T02:39:37.955Z,76.36
2023-01-08T02:41:09.528Z,76.33
2023-01-08T02:43:01.738Z,76.07
2023-01-08T02:44:52.926Z,76.84
2023-01-08T02:46:23.406Z,76.61
2023-01-08T02:48:15.054Z,76.50
2023-01-08T02:49:42.809Z,76.80
2023-01-08T02:51:04.396Z,76.69
2023-01-08T02:52:29.738Z,76.72
2023-01-08T02:53:55.889Z,76.78
2023-01-08T02:55:20.126Z,76.81
2023-01-08T02:56:46.430Z,76.40
2023-01-08T02:58:09.158Z,76.38
2023-01-08T02:59:33.845Z,76.52
2023-01-08T03:00:56.537Z,76.64
2023-01-08T03:02:18.996Z,76.85
2023-01-08T03:03:45.879Z,76.64
2023-01-08T03:05:25.252Z,76.60
2023-01-08T03:06:48.252Z,76.36
2023-01-08T03:08:11.984Z,76.75
2023-01-08T03:09:34.543Z,76.92
2023-01-08T03:11:05.904Z,76.61
2023-01-08T03:12:55.813Z,76.49
2023-01-08T03:14:28.423Z,76.18
2023-01-08T03:15:58.893Z,76.17
2023-01-08T03:17:39.663Z,76.88
2023-01-08T03:19:22.330Z,76.97
2023-01-08T03:20:46.270Z,76.99
2023-01-08T03:22:12.466Z,77.21
2023-01-08T03:23:37.408Z,77.19
2023-01-08T03:25:00.037Z,77.05
2023-01-08T03:26:26.391Z,77.00
2023-01-08T03:28:03.013Z,77.27
2023-01-08T03:29:26.484Z,77.29
2023-01-08T03:30:50.463Z,77.43
2023-01-08T03:32:16.411Z,77.29
2023-01-08T03:33:39.174Z,77.46
2023-01-08T03:35:03.774Z,77.22
2023-01-08T03:36:29.409Z,77.11
2023-01-08T03:38:05.759Z,77.06
2023-01-08T03:39:35.569Z,77.16
2023-01-08T03:41:04.654Z,77.47
2023-01-08T03:42:29.063Z,77.43
2023-01-08T03:43:51.275Z,77.01
2023-01-08T03:45:13.475Z,76.72
2023-01-08T03:46:39.926Z,76.97
2023-01-08T03:48:04.612Z,76.73
2023-01-08T03:49:29.395Z,76.66
2023-01-08T03:50:51.661Z,76.86
2023-01-08T03:52:28.991Z,76.62
2023-01-08T03:53:56.374Z,76.80
2023-01-08T03:55:18.182Z,76.95
2023-01-08T03:56:39.830Z,76.97
2023-01-08T03:58:01.650Z,77.12
2023-01-08T03:59:23.916Z,77.34
2023-01-08T04:00:45.879Z,77.07
2023-01-08T04:02:07.871Z,77.17
2023-01-08T04:03:29.457Z,77.43
2023-01-08T04:04:51.493Z,77.11
2023-01-08T04:06:13.288Z,77.17
2023-01-08T04:07:35.290Z,77.19
2023-01-08T04:08:56.939Z,77.31
2023-01-08T04:10:18.864Z,77.65
2023-01-08T04:11:40.934Z,77.10
2023-01-08T04:13:02.948Z,76.89
2023-01-08T04:14:24.651Z,77.34
2023-01-08T04:15:52.569Z,77.22
2023-01-08T04:17:14.918Z,77.13
2023-01-08T04:18:36.821Z,77.18
2023-01-08T04:19:58.394Z,77.48
2023-01-08T04:21:20.274Z,77.49
2023-01-08T04:22:42.102Z,77.51
2023-01-08T04:24:04.610Z,77.11
2023-01-08T04:25:26.371Z,76.78
2023-01-08T04:26:48.922Z,77.01
2023-01-08T04:28:10.872Z,77.20
2023-01-08T04:29:32.720Z,77.28
2023-01-08T04:30:54.751Z,77.12
2023-01-08T04:32:16.808Z,77.12
2023-01-08T04:33:38.814Z,77.43
2023-01-08T04:35:01.179Z,77.33
2023-01-08T04:36:22.802Z,77.29
2023-01-08T04:37:44.677Z,77.31
2023-01-08T04:39:07.659Z,77.39
2023-01-08T04:40:29.409Z,77.41
2023-01-08T04:41:51.192Z,77.96
2023-01-08T04:43:13.220Z,77.53
2023-01-08T04:44:35.051Z,77.47
2023-01-08T04:46:02.011Z,77.58
2023-01-08T04:47:23.617Z,77.08
2023-01-08T04:48:45.392Z,77.28
2023-01-08T04:50:07.742Z,76.91
2023-01-08T04:51:29.860Z,77.45
2023-01-08T04:52:51.977Z,77.16
2023-01-08T04:54:13.728Z,77.18
2023-01-08T04:55:35.443Z,77.29
2023-01-08T04:56:57.008Z,77.24
2023-01-08T04:58:18.885Z,77.11
2023-01-08T04:59:40.575Z,78.00
2023-01-08T05:01:09.601Z,77.45
2023-01-08T05:02:31.845Z,77.53
2023-01-08T05:04:04.621Z,77.60
2023-01-08T05:05:26.285Z,77.70
2023-01-08T05:06:48.136Z,77.71
2023-01-08T05:08:10.180Z,77.31
2023-01-08T05:09:32.044Z,77.61
2023-01-08T05:10:53.890Z,77.34
2023-01-08T05:12:15.730Z,77.88
2023-01-08T05:13:37.941Z,77.17
2023-01-08T05:14:59.892Z,77.24
2023-01-08T05:16:22.654Z,77.55
2023-01-08T05:17:44.506Z,77.43
2023-01-08T05:19:06.436Z,77.49
2023-01-08T05:20:29.172Z,77.34
2023-01-08T05:21:50.766Z,77.17
2023-01-08T05:23:12.745Z,77.36
2023-01-08T05:24:35.049Z,77.49
2023-01-08T05:26:04.033Z,77.61
2023-01-08T05:27:25.794Z,77.45
2023-01-08T05:28:47.732Z,77.33
2023-01-08T05:30:09.926Z,77.72
2023-01-08T05:31:31.853Z,77.19
2023-01-08T05:32:53.974Z,77.18
2023-01-08T05:34:15.721Z,77.08
2023-01-08T05:35:40.185Z,77.11
2023-01-08T05:37:01.833Z,77.11
2023-01-08T05:38:23.933Z,77.50
2023-01-08T05:39:45.495Z,77.55
2023-01-08T05:41:08.427Z,77.72
2023-01-08T05:42:30.193Z,77.56
2023-01-08T05:43:51.832Z,77.81
2023-01-08T05:45:13.591Z,77.49
2023-01-08T05:46:35.405Z,77.38
2023-01-08T05:47:57.089Z,77.15
2023-01-08T05:49:19.887Z,77.56
2023-01-08T05:50:41.454Z,77.52
2023-01-08T05:52:03.420Z,77.42
2023-01-08T05:53:25.357Z,77.37
2023-01-08T05:54:47.201Z,77.65
2023-01-08T05:56:11.810Z,78.11
2023-01-08T05:57:33.533Z,77.85
2023-01-08T05:58:56.051Z,77.21
2023-01-08T06:00:17.971Z,77.37
2023-01-08T06:01:40.165Z,78.26
2023-01-08T06:03:02.336Z,78.21
2023-01-08T06:04:24.334Z,77.85
2023-01-08T06:05:46.407Z,77.88
2023-01-08T06:07:08.232Z,77.76
2023-01-08T06:08:31.222Z,77.27
2023-01-08T06:09:53.221Z,77.75
2023-01-08T06:11:15.122Z,77.36
2023-01-08T06:12:36.766Z,77.27
2023-01-08T06:13:58.539Z,77.38
2023-01-08T06:15:20.466Z,77.32
2023-01-08T06:16:44.102Z,77.67
2023-01-08T06:18:06.114Z,77.73
2023-01-08T06:19:28.150Z,77.69
2023-01-08T06:20:49.973Z,77.29
2023-01-08T06:22:12.099Z,77.48
2023-01-08T06:23:33.896Z,77.89
2023-01-08T06:24:55.564Z,77.38
2023-01-08T06:26:17.475Z,77.36
2023-01-08T06:27:40.713Z,77.28
2023-01-08T06:29:02.475Z,77.27
2023-01-08T06:30:25.309Z,77.62
2023-01-08T06:31:47.321Z,77.85
2023-01-08T06:33:09.183Z,77.38
2023-01-08T06:34:31.121Z,77.25
2023-01-08T06:35:53.147Z,77.87
2023-01-08T06:37:15.206Z,77.19
2023-01-08T06:38:38.422Z,77.22
2023-01-08T06:40:00.312Z,76.88
2023-01-08T06:41:22.837Z,77.19
2023-01-08T06:42:46.407Z,77.48
2023-01-08T06:44:08.023Z,77.33
2023-01-08T06:45:29.878Z,77.10
2023-01-08T06:46:52.497Z,76.86
2023-01-08T06:48:14.309Z,76.69
2023-01-08T06:49:35.789Z,76.31
2023-01-08T06:51:01.089Z,76.51
2023-01-08T06:52:23.062Z,76.02
2023-01-08T06:53:47.505Z,75.87
2023-01-08T06:55:09.660Z,75.10
2023-01-08T06:56:32.208Z,74.93
2023-01-08T06:57:56.208Z,74.56
2023-01-08T06:59:18.200Z,74.55
2023-01-08T07:00:40.747Z,73.56
2023-01-08T07:02:02.751Z,73.30
2023-01-08T07:03:24.629Z,73.57
2023-01-08T07:04:46.264Z,72.82
2023-01-08T07:06:19.725Z,72.74
2023-01-08T07:07:41.674Z,71.83
2023-01-08T07:09:03.843Z,72.11
2023-01-08T07:10:26.763Z,71.11
2023-01-08T07:11:48.404Z,70.41
2023-01-08T07:13:10.144Z,70.60
2023-01-08T07:14:33.987Z,70.20
2023-01-08T07:15:56.312Z,69.94
2023-01-08T07:17:18.129Z,69.87
2023-01-08T07:18:40.608Z,69.59
2023-01-08T07:20:02.727Z,69.19
2023-01-08T07:21:24.573Z,68.50
2023-01-08T07:22:46.521Z,68.99
2023-01-08T07:24:08.826Z,67.98
2023-01-08T07:25:30.893Z,68.89
2023-01-08T07:26:52.825Z,68.13
2023-01-08T07:28:14.761Z,67.92
2023-01-08T07:29:36.579Z,67.38
2023-01-08T07:31:02.385Z,66.39
2023-01-08T07:32:24.094Z,66.60
2023-01-08T07:33:46.125Z,65.71
2023-01-08T07:35:08.088Z,65.50
2023-01-08T07:36:29.713Z,65.18
2023-01-08T07:37:51.730Z,63.93
2023-01-08T07:39:13.391Z,63.31
2023-01-08T07:40:36.206Z,62.51
2023-01-08T07:41:58.609Z,62.56
2023-01-08T07:43:20.843Z,62.57
2023-01-08T07:44:42.611Z,61.64
2023-01-08T07:46:05.161Z,61.06
2023-01-08T07:47:26.889Z,60.75
2023-01-08T07:48:49.682Z,61.01
2023-01-08T07:50:11.804Z,59.76
2023-01-08T07:51:34.433Z,59.67
2023-01-08T07:53:03.529Z,59.41
2023-01-08T07:54:25.461Z,58.49
2023-01-08T07:55:48.041Z,58.49
2023-01-08T07:57:09.729Z,57.46
2023-01-08T07:58:31.866Z,57.15
2023-01-08T07:59:53.570Z,56.41
2023-01-08T08:01:16.330Z,55.42
2023-01-08T08:02:38.453Z,54.94
2023-01-08T08:04:00.318Z,53.93
2023-01-08T08:05:22.193Z,53.94
2023-01-08T08:06:44.022Z,53.94
2023-01-08T08:08:10.914Z,54.85
2023-01-08T08:09:32.610Z,55.31
2023-01-08T08:10:54.529Z,55.45
2023-01-08T08:12:16.725Z,55.12
2023-01-08T08:13:42.602Z,55.47
2023-01-08T08:15:04.664Z,55.19
2023-01-08T08:16:26.659Z,55.90
2023-01-08T08:17:49.619Z,55.63
2023-01-08T08:19:12.847Z,55.24
2023-01-08T08:20:34.819Z,55.25
2023-01-08T08:21:56.388Z,55.20
2023-01-08T08:23:18.340Z,54.77
2023-01-08T08:24:40.196Z,55.16
2023-01-08T08:26:04.422Z,56.35
2023-01-08T08:27:25.997Z,55.91
2023-01-08T08:28:47.865Z,55.48
2023-01-08T08:30:11.231Z,54.54
2023-01-08T08:31:33.460Z,54.50
2023-01-08T08:32:55.711Z,54.28
2023-01-08T08:34:17.616Z,54.88
2023-01-08T08:35:40.002Z,54.38
2023-01-08T08:37:01.725Z,54.56
2023-01-08T08:38:25.035Z,54.42
2023-01-08T08:39:47.082Z,53.30
2023-01-08T08:41:08.847Z,52.70
2023-01-08T08:42:30.813Z,52.19
2023-01-08T08:43:52.719Z,51.11
2023-01-08T08:45:14.944Z,49.17
2023-01-08T08:46:37.089Z,48.19
2023-01-08T08:47:59.172Z,46.71
2023-01-08T08:49:20.997Z,46.29
2023-01-08T08:50:43.447Z,45.07
2023-01-08T08:52:05.906Z,43.26
2023-01-08T08:53:27.873Z,42.91
2023-01-08T08:54:49.923Z,42.93
2023-01-08T08:56:11.775Z,41.01
2023-01-08T08:57:35.167Z,40.93
2023-01-08T08:58:58.427Z,39.92
2023-01-08T09:00:20.199Z,39.36
2023-01-08T09:01:42.096Z,38.68
2023-01-08T09:03:04.337Z,39.49
2023-01-08T09:04:26.091Z,39.04
2023-01-08T09:05:47.927Z,38.49
2023-01-08T09:07:09.845Z,38.17
2023-01-08T09:08:31.547Z,37.03
2023-01-08T09:09:53.363Z,36.11
2023-01-08T09:11:15.348Z,36.66
2023-01-08T09:12:37.349Z,36.13
2023-01-08T09:13:59.341Z,36.16
2023-01-08T09:15:21.933Z,35.16
2023-01-08T09:16:43.578Z,35.59
2023-01-08T09:18:05.864Z,35.90
2023-01-08T09:19:27.714Z,36.27
2023-01-08T09:20:49.531Z,37.23
2023-01-08T09:22:11.409Z,39.63
2023-01-08T09:23:34.073Z,40.47
2023-01-08T09:24:56.178Z,41.70
2023-01-08T09:26:17.974Z,41.68
2023-01-08T09:27:39.891Z,43.72
2023-01-08T09:29:01.838Z,45.20
2023-01-08T09:30:24.002Z,46.31
2023-01-08T09:31:46.760Z,47.88
2023-01-08T09:33:09.808Z,49.55
2023-01-08T09:34:32.632Z,49.83
2023-01-08T09:35:54.502Z,50.57
2023-01-08T09:37:16.734Z,52.19
2023-01-08T09:38:38.223Z,53.36
2023-01-08T09:40:02.396Z,53.57
2023-01-08T09:41:35.034Z,54.24
2023-01-08T09:43:00.569Z,54.68
2023-01-08T09:44:28.061Z,55.77
2023-01-08T09:45:55.550Z,56.57
2023-01-08T09:47:41.201Z,56.57
2023-01-08T09:49:07.810Z,56.97
2023-01-08T09:50:31.930Z,57.40
2023-01-08T09:51:54.040Z,57.62
2023-01-08T09:53:18.630Z,58.45
2023-01-08T09:54:41.591Z,58.56
2023-01-08T09:56:11.157Z,58.84
2023-01-08T09:57:33.631Z,60.01
2023-01-08T09:58:58.901Z,60.04
2023-01-08T10:00:28.472Z,59.71
2023-01-08T10:01:52.232Z,59.88
2023-01-08T10:03:14.095Z,59.70
2023-01-08T10:04:36.068Z,59.74
2023-01-08T10:05:58.005Z,61.00
2023-01-08T10:07:22.323Z,60.70
2023-01-08T10:10:23.595Z,61.37
2023-01-08T10:11:49.141Z,61.21
2023-01-08T10:13:12.877Z,60.10
2023-01-08T10:14:39.900Z,60.13
2023-01-08T10:16:01.972Z,60.93
2023-01-08T10:17:36.921Z,60.58
2023-01-08T10:19:03.029Z,60.91
2023-01-08T10:20:26.432Z,61.42
2023-01-08T10:21:48.111Z,61.52
2023-01-08T10:23:15.808Z,60.28
2023-01-08T10:24:39.784Z,59.42
2023-01-08T10:26:03.236Z,60.47
2023-01-08T10:27:26.083Z,60.55
2023-01-08T10:28:47.855Z,61.04
2023-01-08T10:30:36.460Z,60.38
2023-01-08T10:31:59.038Z,60.63
2023-01-08T10:33:38.104Z,59.97
2023-01-08T10:35:04.949Z,61.02
2023-01-08T10:36:27.717Z,61.00
2023-01-08T10:37:52.767Z,61.53
2023-01-08T10:39:24.188Z,60.84
2023-01-08T10:40:50.692Z,61.67
2023-01-08T10:42:12.847Z,61.97
2023-01-08T10:43:44.073Z,61.75
2023-01-08T10:45:20.613Z,61.08
2023-01-08T10:46:50.361Z,61.38
2023-01-08T10:48:19.116Z,61.08
2023-01-08T10:49:43.721Z,61.76
2023-01-08T10:51:15.413Z,61.20
2023-01-08T10:52:37.388Z,60.76
2023-01-08T10:54:15.491Z,61.21
2023-01-08T10:55:38.581Z,61.58
2023-01-08T10:57:02.473Z,62.16
2023-01-08T10:58:24.916Z,61.65
2023-01-08T10:59:46.771Z,62.15
2023-01-08T11:01:32.180Z,62.23
2023-01-08T11:02:53.990Z,63.08
2023-01-08T11:04:26.701Z,63.15
2023-01-08T11:05:50.119Z,62.50
2023-01-08T11:07:22.142Z,62.39
2023-01-08T11:08:51.824Z,62.74
2023-01-08T11:10:23.962Z,62.95
2023-01-08T11:11:45.761Z,62.84
2023-01-08T11:13:15.306Z,62.56
2023-01-08T11:14:41.980Z,62.11
2023-01-08T11:16:07.291Z,62.53
2023-01-08T11:17:29.559Z,63.34
2023-01-08T11:18:52.339Z,63.35
2023-01-08T11:20:23.453Z,63.36
2023-01-08T11:22:01.535Z,63.82
2023-01-08T11:23:26.650Z,64.01
2023-01-08T11:24:49.807Z,64.02
2023-01-08T11:26:21.893Z,63.48
2023-01-08T11:27:46.893Z,62.98
2023-01-08T11:29:22.686Z,63.56
2023-01-08T11:30:52.520Z,62.83
2023-01-08T11:32:36.032Z,62.34
2023-01-08T11:34:15.768Z,63.34
2023-01-08T11:35:43.943Z,63.80
2023-01-08T11:37:30.796Z,63.52
2023-01-08T11:38:52.448Z,62.96
2023-01-08T11:40:23.128Z,63.60
2023-01-08T11:42:00.684Z,63.57
2023-01-08T11:43:40.809Z,62.95
2023-01-08T11:45:28.605Z,62.87
2023-01-08T11:47:05.776Z,62.88
2023-01-08T11:48:39.428Z,63.33
2023-01-08T11:50:24.764Z,62.96
2023-01-08T11:52:23.932Z,61.86
2023-01-08T11:53:59.469Z,62.09
2023-01-08T11:55:25.685Z,62.19
2023-01-08T11:57:06.317Z,62.18
2023-01-08T11:59:00.062Z,62.59
2023-01-08T12:00:43.574Z,62.47
2023-01-08T12:02:22.773Z,62.11
2023-01-08T12:04:21.929Z,62.32
2023-01-08T12:06:02.523Z,62.19
2023-01-08T12:07:50.108Z,62.82
2023-01-08T12:09:22.645Z,62.13
2023-01-08T12:10:49.529Z,62.59
2023-01-08T12:12:46.706Z,62.22
2023-01-08T12:14:40.086Z,61.13
2023-01-08T12:16:28.710Z,61.69
2023-01-08T12:18:19.840Z,60.77
2023-01-08T12:20:12.302Z,61.58
2023-01-08T12:21:50.854Z,60.95
2023-01-08T12:23:23.703Z,61.28
2023-01-08T12:25:21.488Z,61.65
2023-01-08T12:26:51.432Z,62.06
2023-01-08T12:28:41.200Z,61.56
2023-01-08T12:30:33.915Z,61.15
2023-01-08T12:32:28.097Z,61.69
2023-01-08T12:34:00.376Z,61.34
2023-01-08T12:35:47.764Z,60.56
2023-01-08T12:37:22.004Z,60.23
2023-01-08T12:38:49.822Z,60.17
2023-01-08T12:40:26.866Z,60.20
2023-01-08T12:41:52.585Z,59.84
2023-01-08T12:43:53.181Z,59.41
2023-01-08T12:45:25.896Z,59.39
2023-01-08T12:46:49.440Z,59.50
2023-01-08T12:48:26.022Z,60.21
2023-01-08T12:50:02.163Z,59.69
2023-01-08T12:51:48.235Z,59.10
2023-01-08T12:53:34.610Z,59.50
2023-01-08T12:55:16.358Z,59.26
2023-01-08T12:57:10.292Z,59.22
2023-01-08T12:58:46.444Z,60.16
2023-01-08T13:00:33.922Z,60.07
2023-01-08T13:02:32.883Z,60.01
2023-01-08T13:03:57.912Z,60.62
2023-01-08T13:05:19.543Z,61.06
2023-01-08T13:07:16.584Z,61.30
2023-01-08T13:08:41.398Z,61.01
2023-01-08T13:10:08.341Z,61.35
2023-01-08T13:11:32.352Z,61.55
2023-01-08T13:12:55.530Z,61.59
2023-01-08T13:14:18.128Z,62.16
2023-01-08T13:15:40.092Z,62.21
2023-01-08T13:17:08.203Z,62.10
2023-01-08T13:18:30.360Z,61.67
2023-01-08T13:19:55.809Z,62.26
2023-01-08T13:21:18.029Z,61.91
2023-01-08T13:22:54.848Z,61.51
2023-01-08T13:24:28.837Z,61.76
2023-01-08T13:25:55.695Z,62.28
2023-01-08T13:27:17.369Z,62.64
2023-01-08T13:28:43.520Z,62.57
2023-01-08T13:30:25.286Z,61.66
2023-01-08T13:31:47.129Z,62.20
2023-01-08T13:33:29.849Z,62.53
2023-01-08T13:35:17.008Z,62.35
2023-01-08T13:36:39.168Z,62.34
2023-01-08T13:38:18.636Z,62.20
2023-01-08T13:39:40.662Z,62.03
2023-01-08T13:41:02.532Z,63.05
2023-01-08T13:42:28.768Z,62.35
2023-01-08T13:43:57.863Z,62.29
2023-01-08T13:45:19.609Z,61.70
2023-01-08T13:46:41.861Z,62.05
2023-01-08T13:48:04.221Z,62.42
2023-01-08T13:49:33.969Z,61.53
2023-01-08T13:50:55.950Z,61.69
2023-01-08T13:52:48.007Z,61.95
2023-01-08T13:54:13.054Z,62.23
2023-01-08T13:55:41.911Z,61.62
2023-01-08T13:57:16.377Z,61.85
2023-01-08T13:58:46.734Z,62.07
2023-01-08T14:00:18.487Z,62.05
2023-01-08T14:01:40.439Z,62.21
2023-01-08T14:03:02.437Z,62.20
2023-01-08T14:04:25.789Z,62.41
2023-01-08T14:05:47.532Z,62.32
2023-01-08T14:07:14.741Z,62.65
2023-01-08T14:08:36.693Z,62.89
2023-01-08T14:10:13.235Z,63.35
2023-01-08T14:11:46.561Z,63.75
2023-01-08T14:13:09.528Z,63.60
2023-01-08T14:14:31.503Z,64.12
2023-01-08T14:15:54.480Z,64.51
2023-01-08T14:17:18.047Z,65.26
2023-01-08T14:18:46.913Z,65.14
2023-01-08T14:20:24.544Z,65.36
2023-01-08T14:22:03.965Z,65.45
2023-01-08T14:23:30.507Z,65.31
2023-01-08T14:25:08.678Z,65.48
2023-01-08T14:26:36.125Z,65.59
2023-01-08T14:28:04.004Z,65.59
2023-01-08T14:29:30.942Z,66.26
2023-01-08T14:30:57.295Z,65.94
2023-01-08T14:32:22.287Z,66.36
2023-01-08T14:33:44.967Z,66.44
2023-01-08T14:35:09.430Z,66.34
2023-01-08T14:36:31.732Z,66.86
2023-01-08T14:37:53.899Z,66.47
2023-01-08T14:39:31.470Z,66.67
2023-01-08T14:41:03.886Z,66.96
2023-01-08T14:42:44.240Z,66.68
2023-01-08T14:44:06.360Z,66.79
2023-01-08T14:45:31.758Z,67.15
2023-01-08T14:46:54.916Z,66.90
2023-01-08T14:48:40.689Z,66.56
2023-01-08T14:50:02.598Z,66.76
2023-01-08T14:51:30.729Z,67.27
2023-01-08T14:52:55.608Z,66.69
2023-01-08T14:54:30.401Z,66.75
2023-01-08T14:55:54.250Z,66.94
2023-01-08T14:57:17.491Z,67.31
2023-01-08T14:58:43.218Z,67.03
2023-01-08T15:00:05.856Z,66.72
2023-01-08T15:01:30.529Z,66.60
2023-01-08T15:02:52.916Z,66.19
2023-01-08T15:04:19.335Z,66.81
2023-01-08T15:05:49.977Z,67.15
2023-01-08T15:07:27.732Z,66.95
2023-01-08T15:08:49.302Z,66.95
2023-01-08T15:10:42.801Z,67.22
2023-01-08T15:12:22.917Z,67.91
2023-01-08T15:13:45.375Z,67.00
2023-01-08T15:15:12.170Z,66.73
2023-01-08T15:16:39.246Z,67.44
2023-01-08T15:18:01.389Z,66.95
2023-01-08T15:19:25.596Z,67.76
2023-01-08T15:20:47.484Z,68.28
2023-01-08T15:22:19.825Z,68.09
2023-01-08T15:23:46.457Z,68.32
2023-01-08T15:25:16.035Z,67.77
2023-01-08T15:26:43.018Z,68.25
2023-01-08T15:28:05.538Z,68.33
2023-01-08T15:29:33.241Z,68.15
2023-01-08T15:30:57.111Z,68.03
2023-01-08T15:32:21.728Z,68.41
2023-01-08T15:33:45.646Z,68.40
2023-01-08T15:35:18.715Z,68.77
2023-01-08T15:36:40.549Z,69.21
2023-01-08T15:38:02.699Z,68.57
2023-01-08T15:39:24.762Z,68.03
2023-01-08T15:40:47.270Z,68.14
2023-01-08T15:42:30.759Z,68.49
2023-01-08T15:43:52.713Z,69.20
2023-01-08T15:45:17.257Z,68.77
2023-01-08T15:46:39.105Z,69.06
2023-01-08T15:48:01.123Z,69.22
2023-01-08T15:49:22.777Z,70.17
2023-01-08T15:50:45.666Z,69.74
2023-01-08T15:52:09.710Z,70.24
2023-01-08T15:53:31.391Z,70.59
2023-01-08T15:54:53.180Z,69.80
2023-01-08T15:56:15.133Z,70.47
2023-01-08T15:57:37.788Z,70.33
2023-01-08T15:59:00.260Z,69.77
2023-01-08T16:00:22.952Z,70.28
2023-01-08T16:01:44.853Z,69.53
2023-01-08T16:03:09.589Z,69.48
2023-01-08T16:04:31.261Z,69.18
2023-01-08T16:05:53.201Z,70.58
2023-01-08T16:07:14.946Z,70.48
2023-01-08T16:08:37.321Z,70.23
2023-01-08T16:09:58.993Z,69.81
2023-01-08T16:11:21.024Z,70.15
2023-01-08T16:12:46.041Z,70.64
2023-01-08T16:14:07.734Z,71.23
2023-01-08T16:15:31.020Z,71.33
2023-01-08T16:16:52.909Z,69.99
2023-01-08T16:18:14.609Z,70.70
2023-01-08T16:19:36.072Z,70.88
2023-01-08T16:21:01.622Z,70.69
2023-01-08T16:22:23.581Z,72.08
2023-01-08T16:23:45.280Z,71.22
2023-01-08T16:25:08.071Z,71.96
2023-01-08T16:26:30.313Z,72.11
2023-01-08T16:27:52.364Z,71.74
2023-01-08T16:29:14.598Z,71.07
2023-01-08T16:30:36.638Z,71.52
2023-01-08T16:31:58.257Z,71.40
2023-01-08T16:33:20.077Z,70.78
2023-01-08T16:34:42.094Z,70.90
2023-01-08T16:36:06.632Z,71.35
2023-01-08T16:37:28.516Z,70.79
2023-01-08T16:38:50.531Z,71.38
2023-01-08T16:40:13.498Z,71.22
2023-01-08T16:41:36.887Z,71.65
2023-01-08T16:43:04.168Z,70.76
2023-01-08T16:44:32.481Z,71.43
2023-01-08T16:45:55.274Z,72.38
2023-01-08T16:47:16.897Z,71.52
2023-01-08T16:48:38.859Z,71.76
2023-01-08T16:50:00.862Z,71.64
2023-01-08T16:51:25.289Z,71.19
2023-01-08T16:52:47.190Z,71.20
2023-01-08T16:54:11.638Z,71.76
2023-01-08T16:55:33.842Z,71.27
2023-01-08T16:56:55.822Z,71.54
2023-01-08T16:58:17.582Z,71.83
2023-01-08T16:59:39.569Z,71.97
2023-01-08T17:01:03.650Z,71.02
2023-01-08T17:02:26.047Z,71.47
2023-01-08T17:03:47.888Z,70.72
2023-01-08T17:05:10.007Z,70.72
2023-01-08T17:06:31.868Z,70.67
2023-01-08T17:07:55.004Z,72.07
2023-01-08T17:09:16.639Z,71.97
2023-01-08T17:10:40.029Z,70.97
2023-01-08T17:12:02.303Z,71.07
2023-01-08T17:13:24.112Z,71.18
2023-01-08T17:14:47.186Z,70.86
2023-01-08T17:16:12.179Z,71.17
2023-01-08T17:17:33.942Z,72.23
2023-01-08T17:18:57.170Z,72.12
2023-01-08T17:20:20.105Z,71.76
2023-01-08T17:21:41.947Z,71.83
2023-01-08T17:23:03.668Z,72.34
2023-01-08T17:24:25.523Z,72.37
2023-01-08T17:25:47.428Z,71.97
2023-01-08T17:27:11.335Z,71.40
2023-01-08T17:28:35.055Z,71.96
2023-01-08T17:29:57.031Z,72.92
2023-01-08T17:31:20.239Z,71.90
2023-01-08T17:32:42.558Z,72.38
2023-01-08T17:34:04.253Z,72.28
2023-01-08T17:35:26.088Z,71.73
2023-01-08T17:36:48.190Z,72.33
2023-01-08T17:38:10.712Z,72.64
2023-01-08T17:39:32.847Z,72.64
2023-01-08T17:40:54.545Z,72.32
2023-01-08T17:42:25.318Z,72.40
2023-01-08T17:43:47.032Z,72.80
2023-01-08T17:45:09.631Z,72.39
2023-01-08T17:46:31.654Z,72.41
2023-01-08T17:47:53.401Z,72.76
2023-01-08T17:49:16.843Z,73.32
2023-01-08T17:50:41.945Z,72.26
2023-01-08T17:52:04.231Z,72.66
2023-01-08T17:53:26.426Z,73.00
2023-01-08T17:54:52.694Z,72.13
2023-01-08T17:56:14.421Z,72.63
2023-01-08T17:57:36.569Z,72.44
2023-01-08T17:58:58.239Z,73.25
2023-01-08T18:00:20.640Z,72.53
2023-01-08T18:01:42.730Z,71.58
2023-01-08T18:03:04.810Z,72.55
2023-01-08T18:04:27.061Z,72.38
2023-01-08T18:05:48.626Z,72.52
2023-01-08T18:07:10.424Z,72.86
2023-01-08T18:08:32.485Z,72.09
2023-01-08T18:09:54.525Z,71.62
2023-01-08T18:11:16.176Z,72.26
2023-01-08T18:12:38.008Z,72.62
2023-01-08T18:14:02.369Z,71.44
2023-01-08T18:15:23.920Z,71.78
2023-01-08T18:16:45.973Z,72.76
2023-01-08T18:18:07.871Z,72.63
2023-01-08T18:19:29.956Z,72.29
2023-01-08T18:20:54.489Z,72.79
2023-01-08T18:22:15.990Z,72.13
2023-01-08T18:23:37.890Z,72.96
2023-01-08T18:24:59.726Z,72.42
2023-01-08T18:26:22.690Z,72.91
2023-01-08T18:27:44.593Z,73.24